Sumpter, Oregon
Current Conditions -  °F | °C
As of 5:02 PM on Sunday 21 Dec 2014 (Local Time) from KBKE Reporting Station
Light Rain Light Rain  
Wind Chill: 34°   Ceiling: 4000
Heat Index: 39°   Visibility: 10mi
Dew Point: 36°   Wind: 7mph
Humidity: 89%   Direction: 150°SSE
Pressure: 30.04"   Gusts: NA
Location:  44.75°N, 118.2°W
Report Text: KBKE 220102Z AUTO 15006KT 10SM -RA SCT029 OVC040 04/02 A3004 RMK AO2 P0000 T00390022 TSNO
Loading
Personal Weather Stations






























Interactive Weather Map New forecast layout! Learn more

10-Day Weather Forecast

Advertisements
Track Severe Weather on mobile